Time;durP1;ratioP1;P1;durP2;ratioP2;P2;SDS_P1;SDS_P2;PMS_P1;PMS_P2;Temp;Humidity;BMP_temperature;BMP_pressure;BME280_temperature;BME280_humidity;BME280_pressure;Samples;Min_cycle;Max_cycle;Signal;HPM_P1;HPM_P2
2022/05/12 00:51:46;;;;;;;;;;;;;;;;;;;;;
2022/05/12 01:58:02;;;;;;;;;;;;;;;;;;;;;
2022/05/12 02:21:39;;;;;;;;;;;;;;;;;;;;;
2022/05/12 02:33:13;;;;;;;19.38;5.20;;;9.30;92.60;;;;;;5883968;24;20112;-79
2022/05/12 03:23:16;;;;;;;;;;;;;;;;;;;;;
2022/05/12 04:27:26;;;;;;;;;;;;;;;;;;;;;
2022/05/12 05:56:44;;;;;;;12.95;2.63;;;13.50;88.00;;;;;;6193682;23;20036;-79
2022/05/12 06:00:47;;;;;;;;;;;;;;;;;;;;;
2022/05/12 06:04:00;;;;;;;22.50;2.92;;;14.00;84.40;;;;;;6100693;23;20041;-79
2022/05/12 06:07:24;;;;;;;;;;;;;;;;;;;;;
2022/05/12 06:10:53;;;;;;;;;;;;;;;;;;;;;
2022/05/12 06:17:51;;;;;;;18.27;3.35;;;14.60;81.60;;;;;;6039335;23;20337;-79
2022/05/12 06:21:16;;;;;;;18.35;2.90;;;14.80;78.90;;;;;;6049274;23;20394;-79
2022/05/12 06:24:49;;;;;;;20.73;3.10;;;14.80;77.20;;;;;;6081500;23;20479;-79
2022/05/12 06:28:17;;;;;;;12.32;2.60;;;14.90;77.50;;;;;;6082404;23;20020;-77
2022/05/12 06:34:32;;;;;;;15.57;2.58;;;15.00;75.90;;;;;;6189076;23;20096;-77
2022/05/12 06:37:25;;;;;;;22.90;3.45;;;15.20;75.90;;;;;;6179562;23;20040;-76
2022/05/12 06:40:35;;;;;;;15.48;2.45;;;15.30;76.10;;;;;;6168842;23;20364;-78
2022/05/12 06:43:09;;;;;;;14.45;2.40;;;15.50;74.40;;;;;;6081122;23;20009;-74
2022/05/12 06:45:46;;;;;;;18.08;2.40;;;15.60;76.20;;;;;;6152220;23;20020;-78
2022/05/12 06:51:38;;;;;;;14.45;2.20;;;15.80;72.60;;;;;;6180878;23;19947;-77
2022/05/12 06:57:30;;;;;;;15.88;2.70;;;16.00;73.30;;;;;;6168137;23;20021;-77
2022/05/12 07:00:23;;;;;;;14.10;2.58;;;16.10;70.70;;;;;;6187026;23;20388;-77
2022/05/12 07:03:16;;;;;;;11.60;2.80;;;16.20;72.00;;;;;;6160006;23;20020;-78
2022/05/12 07:06:04;;;;;;;11.50;2.05;;;16.30;71.20;;;;;;6156434;23;20017;-77
2022/05/12 07:09:04;;;;;;;11.43;2.30;;;16.40;70.20;;;;;;6183471;23;20339;-78
2022/05/12 07:11:32;;;;;;;11.10;2.03;;;16.60;72.00;;;;;;6160561;23;20067;-77
2022/05/12 07:14:38;;;;;;;;;;;16.70;72.00;;;;;;6162200;23;20092;-77
2022/05/12 07:27:56;;;;;;;12.32;2.13;;;16.90;69.60;;;;;;6183427;23;20021;-77
2022/05/12 07:31:11;;;;;;;14.73;2.50;;;17.10;66.70;;;;;;6184371;23;20017;-77
2022/05/12 07:33:43;;;;;;;11.48;2.85;;;17.20;66.50;;;;;;6185017;23;20441;-78
2022/05/12 07:36:53;;;;;;;7.25;1.80;;;17.30;68.10;;;;;;6136456;23;20013;-77
2022/05/12 07:39:55;;;;;;;10.90;2.30;;;17.50;66.70;;;;;;6130653;23;20101;-78
2022/05/12 07:42:43;;;;;;;11.38;2.50;;;17.60;67.40;;;;;;6107143;23;20039;-77
2022/05/12 07:45:21;;;;;;;12.05;2.47;;;17.60;65.10;;;;;;6105672;23;20014;-77
2022/05/12 07:48:23;;;;;;;12.05;2.45;;;17.70;66.00;;;;;;6081017;23;20016;-77
2022/05/12 07:51:15;;;;;;;9.60;1.90;;;17.90;63.60;;;;;;6093703;23;20045;-77
2022/05/12 07:57:35;;;;;;;9.95;2.10;;;17.90;62.70;;;;;;6128630;23;20025;-77
2022/05/12 08:00:13;;;;;;;6.82;1.75;;;17.90;62.50;;;;;;6088420;23;20022;-77
2022/05/12 08:03:08;;;;;;;13.15;2.40;;;17.80;62.10;;;;;;6133091;23;20018;-77
2022/05/12 08:06:18;;;;;;;10.93;2.10;;;18.00;62.90;;;;;;6104320;23;20028;-78
2022/05/12 08:09:19;;;;;;;12.02;2.30;;;18.10;62.70;;;;;;6133603;23;20424;-77
2022/05/12 08:12:55;;;;;;;;;;;;;;;;;;;;;
2022/05/12 08:18:45;;;;;;;;;;;;;;;;;;;;;
2022/05/12 08:22:12;;;;;;;11.45;2.25;;;18.50;62.80;;;;;;6127728;23;20540;-78
2022/05/12 08:24:38;;;;;;;10.77;2.50;;;18.70;62.50;;;;;;6099335;23;20049;-76
2022/05/12 08:27:04;;;;;;;11.32;2.10;;;18.80;61.10;;;;;;6129881;23;20017;-76
2022/05/12 08:33:06;;;;;;;10.90;2.95;;;18.70;59.50;;;;;;6008566;23;20022;-78
2022/05/12 08:36:12;;;;;;;13.85;2.20;;;18.70;61.60;;;;;;5987292;23;20111;-82
2022/05/12 08:42:46;;;;;;;12.50;2.80;;;18.70;58.20;;;;;;6042500;23;20030;-72
2022/05/12 08:45:18;;;;;;;11.60;2.20;;;18.70;59.10;;;;;;6158494;23;20024;-76
2022/05/12 08:52:23;;;;;;;8.95;2.63;;;18.90;59.70;;;;;;6064929;23;20097;-83
2022/05/12 08:55:10;;;;;;;9.10;2.30;;;18.90;60.80;;;;;;6016981;23;20017;-81
2022/05/12 09:01:08;;;;;;;8.55;1.70;;;19.20;59.00;;;;;;6075022;23;20059;-78
2022/05/12 09:03:42;;;;;;;7.18;1.35;;;19.10;58.20;;;;;;6158459;23;20009;-75
2022/05/12 09:07:14;;;;;;;7.57;1.70;;;19.20;58.70;;;;;;6158021;23;20016;-79
2022/05/12 09:35:56;;;;;;;6.20;1.40;;;19.90;53.20;;;;;;6214452;23;20338;-69
2022/05/12 09:38:43;;;;;;;6.72;1.50;;;19.60;53.00;;;;;;6187479;23;20439;-75
2022/05/12 09:56:25;;;;;;;4.70;1.20;;;19.60;51.70;;;;;;6214230;23;20051;-72
2022/05/12 09:59:15;;;;;;;5.38;1.10;;;19.70;54.30;;;;;;6187066;23;20023;-71
2022/05/12 10:08:21;;;;;;;5.00;1.20;;;20.00;53.90;;;;;;6187213;23;20335;-73
2022/05/12 10:10:54;;;;;;;5.15;1.30;;;20.00;53.40;;;;;;6188136;23;20122;-73
2022/05/12 10:13:35;;;;;;;7.05;1.30;;;20.00;52.90;;;;;;6164602;23;20543;-75
2022/05/12 10:16:01;;;;;;;4.97;1.30;;;20.00;51.40;;;;;;6164440;23;20017;-68
2022/05/12 10:18:40;;;;;;;5.38;1.30;;;20.00;52.90;;;;;;6189133;23;20040;-73
2022/05/12 10:25:17;;;;;;;7.90;1.45;;;20.30;51.90;;;;;;6216247;23;20390;-72
2022/05/12 10:28:03;;;;;;;8.05;1.63;;;20.40;50.40;;;;;;6041101;23;20023;-78
2022/05/12 10:30:55;;;;;;;3.60;1.17;;;20.30;50.70;;;;;;6042200;23;20073;-70
2022/05/12 10:33:24;;;;;;;6.18;1.52;;;20.30;50.50;;;;;;6060788;23;20037;-74
2022/05/12 10:36:26;;;;;;;4.85;1.35;;;20.40;50.00;;;;;;6046758;23;20026;-69
2022/05/12 10:39:07;;;;;;;7.55;1.38;;;20.30;50.90;;;;;;6122477;23;20013;-72
2022/05/12 10:41:46;;;;;;;4.82;1.48;;;20.00;50.90;;;;;;6164437;23;20482;-73
2022/05/12 10:45:09;;;;;;;3.33;1.20;;;20.00;51.90;;;;;;6158235;23;20494;-72
2022/05/12 10:47:56;;;;;;;5.95;1.45;;;20.20;52.30;;;;;;6165086;23;20021;-77
2022/05/12 10:50:31;;;;;;;7.35;1.48;;;20.30;49.80;;;;;;6160120;23;20013;-70
2022/05/12 10:53:36;;;;;;;7.55;1.40;;;20.30;50.50;;;;;;6158731;23;20024;-75
2022/05/12 10:56:14;;;;;;;6.03;1.35;;;20.40;50.20;;;;;;6158022;23;20021;-73
2022/05/12 10:59:15;;;;;;;5.85;1.45;;;20.40;50.90;;;;;;6157567;23;20049;-79
2022/05/12 11:01:47;;;;;;;6.10;1.42;;;20.30;50.70;;;;;;6158171;23;20321;-74
2022/05/12 11:04:15;;;;;;;7.25;1.45;;;20.10;50.70;;;;;;6158211;23;20013;-79
2022/05/12 11:06:52;;;;;;;5.95;1.52;;;19.90;50.70;;;;;;6158170;23;20096;-78
2022/05/12 11:13:37;;;;;;;7.18;1.50;;;19.70;52.00;;;;;;6120111;23;20173;-76
2022/05/12 11:16:31;;;;;;;11.27;2.15;;;19.60;52.00;;;;;;6142710;23;20048;-76
2022/05/12 11:31:30;;;;;;;4.43;1.40;;;19.70;51.70;;;;;;5898334;24;20406;-76
2022/05/12 11:34:53;;;;;;;7.97;1.83;;;20.00;51.90;;;;;;5867081;24;20029;-77
2022/05/12 11:37:45;;;;;;;6.93;1.45;;;20.10;51.30;;;;;;5845474;24;20026;-76
2022/05/12 11:40:35;;;;;;;9.98;1.88;;;20.10;52.20;;;;;;5956165;23;20090;-77
2022/05/12 11:46:19;;;;;;;;;;;19.90;51.60;;;;;;6189587;23;20043;-77
2022/05/12 11:49:00;;;;;;;6.03;1.17;;;20.10;50.40;;;;;;6188468;23;19915;-76
2022/05/12 11:52:07;;;;;;;5.57;1.73;;;20.10;50.60;;;;;;6163689;23;20091;-78
2022/05/12 12:02:43;;;;;;;7.18;1.70;;;20.20;50.30;;;;;;6204842;23;20009;-76
2022/05/12 12:05:50;;;;;;;7.68;1.45;;;20.20;50.00;;;;;;6163223;23;20019;-77
2022/05/12 12:08:47;;;;;;;4.60;1.45;;;20.20;49.50;;;;;;6109774;23;20013;-75
2022/05/12 12:14:55;;;;;;;5.07;1.50;;;20.20;49.00;;;;;;6188052;23;20019;-75
2022/05/12 12:17:24;;;;;;;4.03;1.30;;;20.20;48.90;;;;;;6164890;23;20013;-73
2022/05/12 12:19:54;;;;;;;8.63;1.73;;;20.20;48.70;;;;;;6166842;23;20331;-74
2022/05/12 12:22:31;;;;;;;6.18;1.40;;;20.00;48.30;;;;;;6166051;23;20075;-73
2022/05/12 12:25:07;;;;;;;3.42;1.08;;;20.10;49.60;;;;;;6163409;23;20023;-76
2022/05/12 12:27:51;;;;;;;7.25;2.08;;;20.30;49.50;;;;;;6188522;23;20016;-77
2022/05/12 12:30:55;;;;;;;8.60;2.27;;;20.40;48.70;;;;;;6163231;23;20067;-77
2022/05/12 12:33:35;;;;;;;6.88;1.77;;;20.20;47.40;;;;;;6017309;23;20011;-77
2022/05/12 12:36:30;;;;;;;14.38;1.73;;;20.20;49.30;;;;;;6168221;23;20020;-76
2022/05/12 12:39:37;;;;;;;6.25;1.15;;;20.10;48.80;;;;;;6219170;23;20074;-76
2022/05/12 13:27:28;;;;;;;8.18;1.30;;;20.10;50.20;;;;;;6185968;22;20024;-75
2022/05/12 13:30:00;;;;;;;5.80;1.35;;;20.20;50.00;;;;;;6139022;23;20013;-80
2022/05/12 13:32:30;;;;;;;8.80;1.25;;;20.20;49.30;;;;;;6133570;23;20044;-75
2022/05/12 13:34:57;;;;;;;6.80;1.60;;;20.20;49.70;;;;;;6184266;23;20089;-74
2022/05/12 13:37:29;;;;;;;7.82;1.25;;;20.20;50.00;;;;;;6133076;23;20013;-75
2022/05/12 13:39:58;;;;;;;8.07;1.73;;;20.20;50.00;;;;;;6184485;23;20382;-75
2022/05/12 13:42:42;;;;;;;6.70;1.40;;;20.10;49.90;;;;;;6158097;23;20017;-74
2022/05/12 13:45:27;;;;;;;6.15;1.50;;;20.20;50.20;;;;;;6158033;23;20447;-73
2022/05/12 13:47:56;;;;;;;4.85;1.30;;;20.20;49.10;;;;;;6138858;23;20021;-72
2022/05/12 13:50:34;;;;;;;7.97;1.20;;;20.30;49.80;;;;;;6136433;23;20028;-72
2022/05/12 13:53:00;;;;;;;7.35;1.73;;;20.40;49.80;;;;;;6160457;23;20017;-73
2022/05/12 13:55:28;;;;;;;;;;;20.40;49.10;;;;;;6160358;23;20020;-73
2022/05/12 13:58:06;;;;;;;4.85;1.50;;;20.20;49.30;;;;;;6135092;23;19916;-79
2022/05/12 14:00:35;;;;;;;5.38;1.27;;;20.20;48.20;;;;;;6159055;23;20447;-74
2022/05/12 14:03:17;;;;;;;3.75;1.10;;;20.10;49.20;;;;;;6136356;23;20017;-74
2022/05/12 14:05:44;;;;;;;6.03;1.27;;;20.00;48.50;;;;;;6136599;23;20017;-75
2022/05/12 14:08:09;;;;;;;6.00;1.45;;;20.10;50.10;;;;;;6161223;23;20498;-75
2022/05/12 14:11:00;;;;;;;5.18;1.20;;;20.20;50.00;;;;;;6160710;23;20017;-79
2022/05/12 14:19:45;;;;;;;9.43;1.38;;;20.50;49.00;;;;;;6160912;23;20021;-77
2022/05/12 14:22:28;;;;;;;8.20;1.42;;;20.50;48.30;;;;;;6137223;23;20156;-75
2022/05/12 14:25:18;;;;;;;4.43;1.20;;;20.50;49.00;;;;;;6136486;23;20028;-76
2022/05/12 14:28:03;;;;;;;4.80;0.90;;;20.60;47.80;;;;;;6088908;23;20073;-77
2022/05/12 14:30:53;;;;;;;3.90;1.02;;;20.60;48.20;;;;;;6138136;23;20016;-77
2022/05/12 14:34:23;;;;;;;;;;;;;;;;;;;;;
2022/05/12 14:37:01;;;;;;;6.72;1.45;;;20.50;47.70;;;;;;6158544;23;20436;-78
2022/05/12 14:40:16;;;;;;;11.10;1.33;;;20.60;46.90;;;;;;6137549;23;20467;-81
2022/05/12 14:42:49;;;;;;;7.18;1.23;;;20.80;47.40;;;;;;6136867;23;20092;-77
2022/05/12 14:45:56;;;;;;;6.95;1.40;;;21.00;47.60;;;;;;6136105;23;20017;-83
2022/05/12 14:48:24;;;;;;;4.53;1.40;;;20.90;46.20;;;;;;6136006;23;20016;-82
2022/05/12 14:50:50;;;;;;;9.88;1.25;;;21.20;47.10;;;;;;6136348;23;20009;-81
2022/05/12 14:53:16;;;;;;;7.57;1.60;;;21.40;46.80;;;;;;6136377;23;20447;-80
2022/05/12 14:55:43;;;;;;;6.90;1.58;;;21.30;47.10;;;;;;6135723;23;20112;-81
2022/05/12 14:58:10;;;;;;;4.47;1.10;;;21.50;47.00;;;;;;6135958;23;20021;-83
2022/05/12 15:00:39;;;;;;;7.18;1.23;;;21.60;46.20;;;;;;6160451;23;20013;-81
2022/05/12 15:03:05;;;;;;;6.88;1.50;;;21.90;46.20;;;;;;6160774;23;20013;-80
2022/05/12 15:05:31;;;;;;;6.55;1.20;;;21.80;46.20;;;;;;6135808;23;20024;-82
2022/05/12 15:07:58;;;;;;;5.85;1.33;;;22.00;46.10;;;;;;6135778;23;20332;-82
2022/05/12 15:10:24;;;;;;;7.03;1.25;;;22.00;45.70;;;;;;6160513;23;20013;-78
2022/05/12 15:12:50;;;;;;;7.25;1.20;;;22.00;44.00;;;;;;6136222;23;20040;-79
2022/05/12 15:15:16;;;;;;;7.47;1.10;;;22.20;44.00;;;;;;6135989;23;20075;-82
2022/05/12 15:17:44;;;;;;;9.82;1.30;;;22.10;44.80;;;;;;6141955;23;20005;-80
2022/05/12 15:20:13;;;;;;;7.22;1.10;;;22.00;44.40;;;;;;6144363;23;20083;-74
2022/05/12 15:22:39;;;;;;;6.93;2.03;;;22.10;44.50;;;;;;6150486;23;20041;-74
2022/05/12 15:25:06;;;;;;;5.78;1.60;;;21.90;44.00;;;;;;6174747;23;20068;-78
2022/05/12 15:27:34;;;;;;;7.30;1.48;;;22.00;44.30;;;;;;6160386;23;20096;-82
2022/05/12 15:30:06;;;;;;;5.05;1.17;;;21.80;43.70;;;;;;6160610;23;20031;-79
2022/05/12 15:32:32;;;;;;;7.75;1.60;;;21.90;44.50;;;;;;6160429;23;20068;-78
2022/05/12 15:34:57;;;;;;;5.93;1.13;;;21.80;44.30;;;;;;6135275;23;20013;-80
2022/05/12 15:37:23;;;;;;;7.68;1.55;;;22.10;44.70;;;;;;6160088;23;20119;-81
2022/05/12 15:39:50;;;;;;;7.72;1.13;;;22.30;44.60;;;;;;6135728;23;20009;-81
2022/05/12 15:42:18;;;;;;;9.88;1.30;;;22.40;44.10;;;;;;6135602;23;20071;-79
2022/05/12 15:44:44;;;;;;;5.85;1.27;;;22.40;43.80;;;;;;6159851;23;20013;-80
2022/05/12 15:47:20;;;;;;;6.88;1.30;;;22.50;43.20;;;;;;6135389;23;20485;-80
2022/05/12 15:49:46;;;;;;;4.78;1.20;;;22.40;42.20;;;;;;6135597;23;20044;-83
2022/05/12 15:52:12;;;;;;;6.88;1.40;;;22.00;43.80;;;;;;6135180;23;20028;-82
2022/05/12 15:54:40;;;;;;;4.43;1.00;;;22.10;44.50;;;;;;6135690;23;20099;-79
2022/05/12 15:57:06;;;;;;;5.55;1.40;;;22.30;43.80;;;;;;6135913;23;20013;-81
2022/05/12 15:59:32;;;;;;;8.10;1.13;;;22.50;42.30;;;;;;6135485;23;20044;-81
2022/05/12 16:02:00;;;;;;;4.70;1.00;;;22.50;42.10;;;;;;6135509;23;20036;-80
2022/05/12 16:04:26;;;;;;;7.43;1.42;;;22.30;42.00;;;;;;6159936;23;20017;-81
2022/05/12 16:06:52;;;;;;;3.60;1.00;;;22.40;41.80;;;;;;6135264;23;20068;-79
2022/05/12 16:09:18;;;;;;;7.82;1.40;;;22.50;42.30;;;;;;6136176;23;20327;-83
2022/05/12 16:14:22;;;;;;;6.43;1.02;;;22.40;42.40;;;;;;6160625;23;20443;-82
2022/05/12 16:16:48;;;;;;;5.97;1.30;;;22.70;41.60;;;;;;6135032;23;20013;-81
2022/05/12 16:19:16;;;;;;;6.60;1.30;;;22.50;41.70;;;;;;6135574;23;20013;-82
2022/05/12 16:21:51;;;;;;;4.55;0.88;;;22.20;42.10;;;;;;6137295;23;20099;-80
2022/05/12 16:25:10;;;;;;;6.13;1.25;;;22.00;42.40;;;;;;6135889;23;20024;-86
2022/05/12 16:27:51;;;;;;;9.43;1.67;;;21.10;43.40;;;;;;6159233;23;20059;-85
2022/05/12 16:37:53;;;;;;;11.45;1.65;;;19.40;49.50;;;;;;6072919;23;20048;-84
2022/05/12 17:10:03;;;;;;;13.00;2.65;;;16.90;56.90;;;;;;6210793;22;20031;-73
2022/05/12 17:20:34;;;;;;;5.40;1.95;;;16.50;59.10;;;;;;5871856;24;20113;-86
2022/05/12 17:27:54;;;;;;;10.20;2.38;;;16.20;60.50;;;;;;6118985;23;20043;-83
2022/05/12 17:46:13;;;;;;;;;;;;;;;;;;;;;
2022/05/12 17:48:57;;;;;;;7.75;2.40;;;15.80;63.60;;;;;;5982274;23;20052;-80
2022/05/12 17:55:02;;;;;;;7.70;2.00;;;15.50;64.10;;;;;;5920711;23;20027;-81
2022/05/12 17:58:51;;;;;;;9.82;2.80;;;15.60;63.80;;;;;;6050152;23;20014;-84
2022/05/12 18:01:38;;;;;;;6.25;1.95;;;15.50;65.00;;;;;;6010146;23;20468;-78
2022/05/12 18:04:03;;;;;;;8.45;2.03;;;15.30;63.40;;;;;;6013193;23;20051;-79
2022/05/12 18:06:30;;;;;;;10.25;2.22;;;15.30;64.50;;;;;;6152519;23;20100;-75
2022/05/12 18:08:56;;;;;;;15.55;2.28;;;15.20;64.80;;;;;;6214111;23;20078;-74
2022/05/12 18:11:23;;;;;;;11.10;2.13;;;15.10;65.40;;;;;;6213993;23;20013;-76
2022/05/12 18:13:50;;;;;;;13.00;2.45;;;15.00;65.50;;;;;;6188914;23;20110;-77
2022/05/12 18:16:17;;;;;;;11.10;2.33;;;14.90;66.60;;;;;;6189388;23;20012;-75
2022/05/12 18:18:44;;;;;;;11.90;2.65;;;14.80;66.60;;;;;;6214551;23;20325;-75
2022/05/12 18:21:10;;;;;;;16.30;3.38;;;14.80;66.90;;;;;;6189328;23;20024;-72
2022/05/12 18:23:37;;;;;;;9.65;2.70;;;14.70;68.50;;;;;;6189000;23;20024;-75
2022/05/12 18:26:04;;;;;;;13.52;3.30;;;14.60;67.60;;;;;;6215587;23;20012;-77
2022/05/12 18:28:30;;;;;;;8.18;2.80;;;14.50;68.70;;;;;;6189362;23;20024;-75
2022/05/12 18:30:56;;;;;;;13.63;3.30;;;14.40;68.20;;;;;;6190874;23;20008;-79
2022/05/12 18:33:22;;;;;;;18.58;3.50;;;14.40;68.90;;;;;;6165725;23;20008;-80
2022/05/12 18:35:48;;;;;;;;;;;14.30;69.50;;;;;;6193338;23;20075;-82
2022/05/12 18:38:18;;;;;;;13.65;3.72;;;14.20;72.50;;;;;;6196190;23;19912;-81
2022/05/12 18:40:47;;;;;;;13.13;3.50;;;14.10;70.20;;;;;;6176698;23;20070;-82
2022/05/12 18:43:16;;;;;;;14.60;4.05;;;14.20;70.70;;;;;;6206361;23;20024;-75
2022/05/12 18:45:42;;;;;;;10.85;3.28;;;14.10;71.30;;;;;;6218386;23;20017;-76
2022/05/12 18:48:08;;;;;;;16.63;3.15;;;14.00;71.70;;;;;;6154473;23;20017;-81
2022/05/12 18:50:36;;;;;;;13.60;2.88;;;14.00;71.70;;;;;;6217802;23;20440;-78
2022/05/12 18:53:02;;;;;;;14.45;3.40;;;13.90;72.10;;;;;;6192583;23;20095;-82
2022/05/12 18:55:41;;;;;;;12.15;3.55;;;14.00;71.70;;;;;;6169269;23;20049;-81
2022/05/12 18:58:14;;;;;;;11.88;3.28;;;13.90;73.40;;;;;;6195066;23;20016;-83
2022/05/12 19:00:43;;;;;;;9.73;3.67;;;13.80;72.60;;;;;;6165922;23;20019;-78
2022/05/12 19:03:09;;;;;;;16.15;4.28;;;13.70;72.90;;;;;;6166663;23;20008;-75
2022/05/12 19:05:36;;;;;;;;;;;13.70;74.50;;;;;;6190875;23;20514;-75
2022/05/12 19:08:02;;;;;;;17.70;4.88;;;13.60;76.70;;;;;;6190933;23;20319;-78
2022/05/12 19:10:29;;;;;;;9.13;3.90;;;13.50;76.20;;;;;;6165817;23;20079;-76
2022/05/12 19:12:55;;;;;;;16.08;4.95;;;13.50;76.90;;;;;;6191003;23;20452;-76
2022/05/12 19:15:24;;;;;;;19.27;4.45;;;13.40;75.10;;;;;;6191250;23;20036;-77
2022/05/12 19:17:55;;;;;;;12.25;4.65;;;13.40;76.00;;;;;;6191997;23;20027;-78
2022/05/12 19:21:10;;;;;;;15.32;4.50;;;13.30;76.80;;;;;;6217080;23;20009;-77
2022/05/12 19:23:41;;;;;;;16.45;4.93;;;13.30;78.00;;;;;;6212968;23;20020;-77
2022/05/12 19:26:09;;;;;;;15.18;4.97;;;13.20;75.90;;;;;;6165356;23;20016;-78
2022/05/12 19:29:09;;;;;;;13.38;4.43;;;13.20;77.00;;;;;;6189752;23;20316;-77
2022/05/12 19:32:08;;;;;;;16.70;5.15;;;13.10;78.60;;;;;;6212780;23;20383;-73
2022/05/12 19:34:39;;;;;;;13.73;4.82;;;13.10;78.80;;;;;;6180407;23;20012;-77
2022/05/12 19:37:05;;;;;;;16.70;5.55;;;13.20;77.00;;;;;;6189959;23;20032;-76
2022/05/12 19:49:03;;;;;;;16.90;5.60;;;13.10;78.20;;;;;;6215958;23;20028;-76
2022/05/12 19:51:28;;;;;;;20.67;5.80;;;13.10;80.60;;;;;;6162634;23;20166;-70
2022/05/12 19:53:54;;;;;;;13.48;5.90;;;12.80;81.70;;;;;;6184459;23;20448;-73
2022/05/12 19:56:35;;;;;;;17.63;6.50;;;12.70;80.50;;;;;;6184533;23;20013;-73
2022/05/12 19:59:03;;;;;;;20.23;5.88;;;12.60;81.30;;;;;;6159649;23;20052;-71
2022/05/12 20:01:29;;;;;;;15.80;5.93;;;12.50;81.00;;;;;;6184468;23;20020;-71
2022/05/12 20:03:55;;;;;;;18.40;6.63;;;12.40;81.40;;;;;;6135472;23;20028;-72
2022/05/12 20:06:22;;;;;;;16.65;6.30;;;12.20;82.10;;;;;;6183937;23;20017;-74
2022/05/12 20:08:48;;;;;;;17.23;7.72;;;12.30;81.50;;;;;;6159556;23;20013;-71
2022/05/12 20:11:13;;;;;;;19.85;6.85;;;12.20;82.60;;;;;;6184134;23;20017;-72
2022/05/12 20:13:39;;;;;;;21.00;6.75;;;12.10;82.60;;;;;;6159595;23;20020;-70
2022/05/12 20:16:05;;;;;;;18.00;7.10;;;12.10;82.70;;;;;;6135067;23;20017;-70
2022/05/12 20:18:31;;;;;;;21.85;6.75;;;12.00;82.90;;;;;;6161132;23;20092;-71
2022/05/12 20:21:12;;;;;;;19.63;7.70;;;11.90;83.10;;;;;;6186647;23;20060;-72
2022/05/12 20:23:54;;;;;;;17.75;7.35;;;11.90;84.80;;;;;;6145747;23;20068;-72
2022/05/12 20:26:36;;;;;;;;;;;;;;;;;;;;;
2022/05/12 20:29:06;;;;;;;20.00;7.63;;;11.80;84.40;;;;;;6184092;23;20013;-70
2022/05/12 20:31:32;;;;;;;15.85;7.60;;;11.80;84.30;;;;;;6159246;23;20440;-71
2022/05/12 20:33:58;;;;;;;;;;;11.70;83.40;;;;;;6184725;23;20013;-71
2022/05/12 20:36:25;;;;;;;18.60;7.82;;;11.70;86.10;;;;;;6209375;23;19927;-72
2022/05/12 20:38:51;;;;;;;15.82;7.75;;;11.70;84.40;;;;;;6184077;23;20021;-71
2022/05/12 20:41:28;;;;;;;20.55;8.45;;;11.60;83.70;;;;;;6159344;23;20310;-72
2022/05/12 20:43:57;;;;;;;27.25;9.63;;;11.60;83.80;;;;;;6184002;23;20458;-73
2022/05/12 20:46:32;;;;;;;16.42;7.85;;;11.60;84.60;;;;;;6159711;23;20332;-72
2022/05/12 20:49:03;;;;;;;22.15;9.02;;;11.60;84.60;;;;;;6183851;23;20013;-72
2022/05/12 20:51:33;;;;;;;22.52;8.00;;;11.50;85.00;;;;;;6159759;23;20066;-72
2022/05/12 20:53:59;;;;;;;26.48;9.30;;;11.60;85.40;;;;;;6184145;23;20013;-71
2022/05/12 20:56:26;;;;;;;25.55;10.25;;;11.70;85.40;;;;;;6158624;23;20451;-71
2022/05/12 20:58:53;;;;;;;23.85;9.73;;;11.70;86.00;;;;;;6183310;23;20017;-72
2022/05/12 21:01:20;;;;;;;23.02;9.85;;;11.80;86.40;;;;;;6159242;23;20091;-72
2022/05/12 21:03:48;;;;;;;21.75;10.35;;;11.70;85.40;;;;;;6158492;23;20021;-72
2022/05/12 21:06:14;;;;;;;20.83;9.15;;;11.70;85.00;;;;;;6183455;23;20021;-72
2022/05/12 21:08:39;;;;;;;21.83;9.60;;;11.70;85.60;;;;;;6159171;23;20017;-72
2022/05/12 21:11:05;;;;;;;18.40;8.90;;;11.70;85.50;;;;;;6159224;23;20055;-71
2022/05/12 21:13:31;;;;;;;17.70;9.38;;;11.70;85.80;;;;;;6183842;23;20275;-71
2022/05/12 21:16:02;;;;;;;16.67;8.25;;;11.80;85.80;;;;;;6159329;23;20013;-72
2022/05/12 21:18:29;;;;;;;18.88;8.90;;;11.80;85.10;;;;;;6183802;23;20067;-71
2022/05/12 21:20:55;;;;;;;18.35;8.35;;;11.80;84.80;;;;;;6158615;23;20522;-71
2022/05/12 21:23:21;;;;;;;22.02;8.13;;;11.80;86.60;;;;;;6159008;23;20056;-70
2022/05/12 21:25:47;;;;;;;15.88;7.50;;;11.80;85.00;;;;;;6158752;23;20336;-73
2022/05/12 21:28:13;;;;;;;18.85;8.43;;;11.90;84.90;;;;;;6183754;23;20087;-72
2022/05/12 21:30:39;;;;;;;15.02;8.70;;;11.80;85.70;;;;;;6158572;23;20060;-72
2022/05/12 21:33:05;;;;;;;19.70;8.25;;;11.80;85.20;;;;;;6158488;23;20013;-72
2022/05/12 21:35:33;;;;;;;17.20;8.60;;;11.90;85.60;;;;;;6134150;23;20028;-72
2022/05/12 21:38:01;;;;;;;20.05;8.52;;;11.90;85.30;;;;;;6183727;23;20017;-71
2022/05/12 21:40:30;;;;;;;18.77;9.05;;;11.90;85.10;;;;;;6183322;23;20399;-73
2022/05/12 21:42:56;;;;;;;19.63;9.50;;;11.90;85.70;;;;;;6183764;23;20502;-71
2022/05/12 21:48:32;;;;;;;19.67;8.50;;;11.90;85.10;;;;;;6183414;23;20343;-72
2022/05/12 21:51:04;;;;;;;18.45;8.18;;;11.90;85.30;;;;;;6183673;23;20075;-72
2022/05/12 21:53:59;;;;;;;18.58;8.10;;;11.90;85.40;;;;;;6184271;23;20072;-74
2022/05/12 21:56:30;;;;;;;14.73;7.72;;;11.90;84.60;;;;;;6183678;23;20016;-73
2022/05/12 22:01:57;;;;;;;13.85;7.85;;;11.80;85.30;;;;;;6183300;23;20072;-77
2022/05/12 22:04:31;;;;;;;17.67;7.28;;;11.90;84.40;;;;;;6159206;23;20092;-79
2022/05/12 22:07:13;;;;;;;13.73;7.15;;;12.10;84.10;;;;;;6183985;23;20013;-76
2022/05/12 22:09:42;;;;;;;14.90;6.95;;;11.80;83.90;;;;;;6161302;23;20056;-75
2022/05/12 22:12:18;;;;;;;15.50;6.82;;;11.80;84.30;;;;;;6185773;23;20028;-75
2022/05/12 22:14:48;;;;;;;12.88;6.63;;;11.80;84.20;;;;;;6186113;23;20032;-75
2022/05/12 22:17:32;;;;;;;16.10;6.40;;;11.70;85.00;;;;;;6161190;23;20025;-74
2022/05/12 22:20:01;;;;;;;13.07;6.10;;;11.70;84.90;;;;;;6161919;23;20065;-75
2022/05/12 22:22:28;;;;;;;13.90;6.30;;;11.80;85.10;;;;;;6186137;23;20025;-75
2022/05/12 22:24:56;;;;;;;17.95;6.35;;;11.80;84.40;;;;;;6184962;23;20404;-75
2022/05/12 22:27:25;;;;;;;13.50;6.00;;;12.00;84.70;;;;;;6161563;23;20092;-75
2022/05/12 22:29:54;;;;;;;13.75;5.32;;;11.80;84.50;;;;;;6185288;23;20531;-74
2022/05/12 22:32:23;;;;;;;11.73;6.22;;;11.80;84.80;;;;;;6185740;23;20017;-74
2022/05/12 22:34:52;;;;;;;11.60;5.45;;;11.80;84.60;;;;;;6161196;23;20021;-74
2022/05/12 22:37:18;;;;;;;;;;;11.80;85.60;;;;;;6185690;23;20043;-75
2022/05/12 22:39:48;;;;;;;11.23;5.88;;;11.90;85.30;;;;;;6160343;23;19998;-76
2022/05/12 22:42:16;;;;;;;11.32;4.90;;;12.10;85.70;;;;;;6160483;23;20412;-75
2022/05/12 22:44:42;;;;;;;13.00;5.40;;;11.90;84.90;;;;;;6186115;23;20024;-75
2022/05/12 22:47:13;;;;;;;13.05;5.00;;;11.90;85.20;;;;;;6159861;23;20056;-74
2022/05/12 22:49:39;;;;;;;14.27;5.22;;;12.00;85.40;;;;;;6185481;23;20443;-75
2022/05/12 22:52:10;;;;;;;14.73;4.68;;;12.00;85.80;;;;;;6185579;23;20009;-75
2022/05/12 22:54:45;;;;;;;13.02;5.32;;;12.00;84.70;;;;;;6185353;23;20482;-76
2022/05/12 22:57:17;;;;;;;15.98;5.18;;;12.00;85.20;;;;;;6185166;23;20024;-75
2022/05/12 22:59:42;;;;;;;17.50;5.13;;;12.00;84.70;;;;;;6184972;23;20020;-74
2022/05/12 23:02:08;;;;;;;15.70;4.65;;;12.10;84.50;;;;;;6185508;23;20013;-75
2022/05/12 23:04:34;;;;;;;17.98;4.95;;;12.10;84.30;;;;;;6185477;23;20092;-76
2022/05/12 23:07:03;;;;;;;23.30;5.32;;;12.20;84.50;;;;;;6160196;23;20014;-74
2022/05/12 23:09:28;;;;;;;27.20;5.82;;;12.20;85.20;;;;;;6184562;23;20009;-75
2022/05/12 23:11:54;;;;;;;24.95;5.60;;;12.20;84.30;;;;;;6159225;23;20507;-74
2022/05/12 23:14:25;;;;;;;22.77;5.32;;;12.30;84.60;;;;;;6160502;23;20066;-75
2022/05/12 23:16:56;;;;;;;20.40;4.95;;;12.40;84.30;;;;;;6185530;23;20055;-75
2022/05/12 23:22:14;;;;;;;29.60;4.93;;;12.40;85.20;;;;;;6188630;23;20063;-72
2022/05/12 23:24:40;;;;;;;26.80;5.40;;;12.40;84.30;;;;;;6187367;23;20084;-72
2022/05/12 23:27:12;;;;;;;22.08;5.10;;;12.40;84.30;;;;;;6160673;23;20024;-74
2022/05/12 23:29:46;;;;;;;23.25;5.35;;;12.50;84.70;;;;;;6185123;23;20009;-75
2022/05/12 23:32:21;;;;;;;29.77;5.82;;;12.40;85.20;;;;;;6185056;23;20344;-74
2022/05/12 23:34:55;;;;;;;26.73;5.53;;;12.40;84.50;;;;;;6185206;23;20140;-75
2022/05/12 23:37:23;;;;;;;31.02;6.03;;;12.40;84.90;;;;;;6184240;23;20013;-74
2022/05/12 23:39:49;;;;;;;26.13;5.85;;;12.40;84.90;;;;;;6159871;23;20012;-74
2022/05/12 23:42:18;;;;;;;25.77;5.63;;;12.40;85.00;;;;;;6159958;23;20063;-74
2022/05/12 23:44:44;;;;;;;32.90;6.22;;;12.40;86.10;;;;;;6185080;23;20309;-75
2022/05/12 23:47:13;;;;;;;24.73;5.18;;;12.50;86.40;;;;;;6184834;23;20021;-75
2022/05/12 23:49:39;;;;;;;28.98;5.80;;;12.40;85.60;;;;;;6160180;23;20020;-75
2022/05/12 23:52:08;;;;;;;29.40;6.68;;;12.50;85.70;;;;;;6184947;23;20100;-74
2022/05/12 23:54:34;;;;;;;42.10;6.60;;;12.80;85.80;;;;;;6160036;23;20467;-75
2022/05/12 23:57:02;;;;;;;31.85;5.45;;;12.50;85.90;;;;;;6185135;23;20383;-74
2022/05/12 23:59:31;;;;;;;29.50;6.38;;;12.50;85.60;;;;;;6159838;23;20100;-74
